Terminal Aerodrome Forecast
Issued by NWS Tulsa, OK

Home | Current Version | Previous Version | Text Only | Print | Product List | Glossary On
Versions: 1 2 3 4 5 6 7 8 9 10 11 12 13 14 15 16 17
000
FTUS44 KTSA 282330
TAFTUL
TAF
KTUL 282330Z 2900/2924 15005KT P6SM VCSH BKN120
     FM290200 16005KT P6SM BKN120
      TEMPO 2909/2913 5SM -TSRA BKN050CB
     FM291500 23008KT P6SM SCT050 BKN150
     FM291800 31007KT P6SM SCT050 BKN150=

USA.gov is the U.S. government's official web portal to all federal, state and local government web resources and services.